Time;durP1;ratioP1;P1;durP2;ratioP2;P2;SDS_P1;SDS_P2;PMS_P1;PMS_P2;Temp;Humidity;BMP_temperature;BMP_pressure;BME280_temperature;BME280_humidity;BME280_pressure;Samples;Min_cycle;Max_cycle;Signal;HPM_P1;HPM_P2
2024/04/13 00:00:11;;;;;;;;;;;12.60;80.00;;;;;;5463526;26;19928;-61
2024/04/13 00:02:44;;;;;;;;;;;12.60;80.00;;;;;;5463708;26;19991;-63
2024/04/13 00:05:19;;;;;;;;;;;12.60;79.90;;;;;;5461859;26;19955;-62
2024/04/13 00:07:52;;;;;;;;;;;12.50;79.90;;;;;;5463338;26;19952;-62
2024/04/13 00:10:30;;;;;;;;;;;12.50;79.90;;;;;;5457862;26;20264;-61
2024/04/13 00:13:03;;;;;;;;;;;12.50;80.00;;;;;;5461096;26;19936;-62
2024/04/13 00:15:38;;;;;;;;;;;12.40;80.00;;;;;;5464655;26;20021;-62
2024/04/13 00:18:11;;;;;;;;;;;12.40;80.00;;;;;;5464933;26;19928;-62
2024/04/13 00:20:46;;;;;;;;;;;12.40;80.00;;;;;;5466528;26;19937;-61
2024/04/13 00:23:19;;;;;;;;;;;12.40;79.90;;;;;;5459757;26;19928;-62
2024/04/13 00:26:04;;;;;;;;;;;12.30;79.90;;;;;;5461409;26;19996;-62
2024/04/13 00:28:37;;;;;;;;;;;12.40;79.90;;;;;;5450147;26;20514;-62
2024/04/13 00:31:12;;;;;;;;;;;12.30;79.90;;;;;;5465125;26;19939;-62
2024/04/13 00:33:45;;;;;;;;;;;12.30;80.00;;;;;;5459909;26;19960;-62
2024/04/13 00:36:19;;;;;;;;;;;12.30;80.10;;;;;;5461467;26;19941;-62
2024/04/13 00:38:52;;;;;;;;;;;12.30;80.10;;;;;;5456413;26;19935;-62
2024/04/13 00:41:30;;;;;;;;;;;12.30;80.00;;;;;;5461900;26;20327;-62
2024/04/13 00:44:03;;;;;;;;;;;12.30;80.00;;;;;;5455860;26;20603;-62
2024/04/13 00:46:45;;;;;;;;;;;12.30;80.00;;;;;;5459187;26;19997;-63
2024/04/13 00:49:19;;;;;;;;;;;12.20;80.00;;;;;;5458527;26;19996;-62
2024/04/13 00:51:56;;;;;;;;;;;12.20;80.00;;;;;;5463589;26;20424;-61
2024/04/13 00:54:31;;;;;;;;;;;12.20;80.00;;;;;;5457191;26;19948;-60
2024/04/13 00:57:09;;;;;;;;;;;12.20;80.10;;;;;;5459772;26;20000;-60
2024/04/13 00:59:42;;;;;;;;;;;12.10;80.20;;;;;;5462153;26;20054;-60
2024/04/13 01:02:19;;;;;;;;;;;12.10;80.30;;;;;;5462707;26;20231;-61
2024/04/13 01:05:20;;;;;;;;;;;12.10;80.30;;;;;;5463928;26;20320;-61
2024/04/13 01:08:05;;;;;;;;;;;12.00;80.40;;;;;;5455821;26;20360;-61
2024/04/13 01:10:40;;;;;;;;;;;12.00;80.40;;;;;;5410315;26;20374;-60
2024/04/13 01:13:19;;;;;;;;;;;12.00;80.40;;;;;;5416634;26;19929;-61
2024/04/13 01:15:52;;;;;;;;;;;11.90;80.50;;;;;;5425989;26;19929;-60
2024/04/13 01:18:29;;;;;;;;;;;11.90;80.40;;;;;;5426000;26;19940;-61
2024/04/13 01:24:43;;;;;;;;;;;11.90;80.50;;;;;;5424489;26;19936;-61
2024/04/13 01:27:17;;;;;;;;;;;11.80;80.70;;;;;;5459415;26;20361;-62
2024/04/13 01:29:52;;;;;;;;;;;11.80;80.70;;;;;;5463831;26;19932;-62
2024/04/13 01:32:56;;;;;;;;;;;11.80;80.90;;;;;;5461527;26;20003;-62
2024/04/13 01:35:31;;;;;;;;;;;11.80;81.00;;;;;;5461279;26;19940;-62
2024/04/13 01:38:04;;;;;;;;;;;11.80;81.10;;;;;;5457092;26;19928;-61
2024/04/13 01:40:35;;;;;;;;;;;11.80;81.10;;;;;;5458577;26;19928;-61
2024/04/13 01:43:01;;;;;;;;;;;11.80;81.30;;;;;;5457100;26;20443;-62
2024/04/13 01:45:30;;;;;;;;;;;11.80;81.50;;;;;;5460540;26;20363;-61
2024/04/13 01:47:56;;;;;;;;;;;11.80;81.70;;;;;;5463172;26;20540;-61
2024/04/13 01:50:25;;;;;;;;;;;11.80;81.90;;;;;;5468650;26;19928;-61
2024/04/13 01:52:51;;;;;;;;;;;11.80;82.00;;;;;;5469569;26;19997;-61
2024/04/13 01:55:20;;;;;;;;;;;11.90;82.00;;;;;;5461556;26;19964;-61
2024/04/13 01:57:49;;;;;;;;;;;12.00;82.10;;;;;;5467627;26;20058;-61
2024/04/13 02:00:18;;;;;;;;;;;12.00;82.00;;;;;;5464551;26;19932;-61
2024/04/13 02:02:44;;;;;;;;;;;12.00;82.20;;;;;;5469060;26;19936;-61
2024/04/13 02:05:13;;;;;;;;;;;12.10;82.20;;;;;;5465962;26;19928;-60
2024/04/13 02:07:39;;;;;;;;;;;12.10;82.40;;;;;;5464814;26;19929;-60
2024/04/13 02:10:10;;;;;;;;;;;12.10;82.40;;;;;;5465148;26;19940;-59
2024/04/13 02:12:36;;;;;;;;;;;12.10;82.50;;;;;;5467466;26;19928;-60
2024/04/13 02:15:08;;;;;;;;;;;12.10;82.50;;;;;;5465263;26;19934;-61
2024/04/13 02:17:34;;;;;;;;;;;12.10;82.60;;;;;;5462756;26;20045;-60
2024/04/13 02:20:03;;;;;;;;;;;12.10;82.60;;;;;;5465610;26;19929;-60
2024/04/13 02:22:35;;;;;;;;;;;12.10;82.40;;;;;;5463942;26;19940;-60
2024/04/13 02:25:04;;;;;;;;;;;12.10;82.40;;;;;;5460914;26;19936;-61
2024/04/13 02:27:31;;;;;;;;;;;12.10;82.50;;;;;;5465413;26;19928;-60
2024/04/13 02:30:01;;;;;;;;;;;12.10;82.50;;;;;;5465503;26;19940;-60
2024/04/13 02:32:30;;;;;;;;;;;12.10;82.40;;;;;;5464813;26;19937;-61
2024/04/13 02:34:59;;;;;;;;;;;12.00;82.50;;;;;;5464089;26;19952;-60
2024/04/13 02:37:25;;;;;;;;;;;12.00;82.50;;;;;;5463647;26;19935;-61
2024/04/13 02:39:54;;;;;;;;;;;11.90;82.50;;;;;;5464743;26;20427;-60
2024/04/13 02:42:20;;;;;;;;;;;11.90;82.50;;;;;;5461309;26;19935;-61
2024/04/13 02:44:49;;;;;;;;;;;11.90;82.50;;;;;;5464169;26;19929;-61
2024/04/13 02:47:15;;;;;;;;;;;11.90;82.30;;;;;;5463334;26;19936;-62
2024/04/13 02:49:47;;;;;;;;;;;11.90;82.20;;;;;;5461972;26;19940;-62
2024/04/13 02:52:13;;;;;;;;;;;11.80;82.20;;;;;;5463312;26;19929;-61
2024/04/13 02:54:42;;;;;;;;;;;11.80;82.10;;;;;;5466315;26;20435;-60
2024/04/13 02:57:08;;;;;;;;;;;11.80;81.90;;;;;;5464544;26;19927;-61
2024/04/13 02:59:38;;;;;;;;;;;11.70;81.90;;;;;;5446622;26;20264;-60
2024/04/13 03:02:04;;;;;;;;;;;11.70;81.80;;;;;;5465158;26;20017;-61
2024/04/13 03:04:33;;;;;;;;;;;11.70;81.80;;;;;;5462980;26;19936;-61
2024/04/13 03:07:02;;;;;;;;;;;11.70;81.70;;;;;;5465483;26;20340;-61
2024/04/13 03:09:31;;;;;;;;;;;11.60;81.70;;;;;;5466608;26;20378;-61
2024/04/13 03:11:57;;;;;;;;;;;11.60;81.70;;;;;;5459369;26;19936;-61
2024/04/13 03:14:26;;;;;;;;;;;11.60;81.80;;;;;;5461723;26;19928;-62
2024/04/13 03:16:52;;;;;;;;;;;11.60;81.70;;;;;;5459454;26;19939;-62
2024/04/13 03:19:21;;;;;;;;;;;11.60;81.70;;;;;;5462980;26;20364;-61
2024/04/13 03:21:47;;;;;;;;;;;11.50;81.70;;;;;;5462937;26;19932;-61
2024/04/13 03:24:18;;;;;;;;;;;11.40;81.70;;;;;;5466664;26;20264;-61
2024/04/13 03:26:46;;;;;;;;;;;11.50;81.70;;;;;;5453391;26;19944;-62
2024/04/13 03:29:14;;;;;;;;;;;11.40;81.70;;;;;;5441915;26;19940;-62
2024/04/13 03:31:41;;;;;;;;;;;11.40;81.70;;;;;;5449861;26;19936;-63
2024/04/13 03:34:10;;;;;;;;;;;11.40;81.60;;;;;;5446569;26;20000;-62
2024/04/13 03:36:36;;;;;;;;;;;11.40;81.50;;;;;;5408649;26;19945;-62
2024/04/13 03:39:05;;;;;;;;;;;11.40;81.60;;;;;;5418549;26;19942;-62
2024/04/13 03:41:36;;;;;;;;;;;11.30;81.50;;;;;;5439460;26;20375;-62
2024/04/13 03:44:02;;;;;;;;;;;11.30;81.50;;;;;;5438064;26;19968;-61
2024/04/13 03:46:31;;;;;;;;;;;11.30;81.50;;;;;;5439488;26;19939;-63
2024/04/13 03:48:58;;;;;;;;;;;11.20;81.50;;;;;;5441503;26;19961;-62
2024/04/13 03:51:27;;;;;;;;;;;11.20;81.50;;;;;;5440567;26;19933;-62
2024/04/13 03:53:53;;;;;;;;;;;11.20;81.50;;;;;;5435045;26;19941;-62
2024/04/13 03:56:22;;;;;;;;;;;11.20;81.50;;;;;;5433739;26;20264;-61
2024/04/13 04:02:29;;;;;;;;;;;11.10;81.50;;;;;;5411763;26;19938;-62
2024/04/13 04:04:55;;;;;;;;;;;11.00;81.50;;;;;;5405989;26;19929;-61
2024/04/13 04:07:24;;;;;;;;;;;11.00;81.50;;;;;;5418799;26;19937;-61
2024/04/13 04:09:50;;;;;;;;;;;11.00;81.50;;;;;;5418276;26;19940;-61
2024/04/13 04:12:18;;;;;;;;;;;10.90;81.40;;;;;;5401575;26;20309;-65
2024/04/13 04:14:44;;;;;;;;;;;11.00;81.40;;;;;;5424354;26;19929;-60
2024/04/13 04:17:13;;;;;;;;;;;10.90;81.30;;;;;;5414763;26;19935;-62
2024/04/13 04:19:42;;;;;;;;;;;10.90;81.40;;;;;;5429760;26;19932;-62
2024/04/13 04:22:10;;;;;;;;;;;10.90;81.30;;;;;;5406549;26;19936;-60
2024/04/13 04:24:38;;;;;;;;;;;10.80;81.40;;;;;;5392378;26;19949;-61
2024/04/13 04:27:07;;;;;;;;;;;10.80;81.30;;;;;;5435577;26;19928;-62
2024/04/13 04:29:33;;;;;;;;;;;10.80;81.40;;;;;;5438941;26;19928;-61
2024/04/13 04:32:02;;;;;;;;;;;10.80;81.40;;;;;;5456664;26;19964;-60
2024/04/13 04:34:29;;;;;;;;;;;10.80;81.40;;;;;;5444082;26;20004;-62
2024/04/13 04:37:01;;;;;;;;;;;10.70;81.40;;;;;;5448989;26;19940;-61
2024/04/13 04:39:28;;;;;;;;;;;10.70;81.40;;;;;;5442452;26;19929;-61
2024/04/13 04:41:57;;;;;;;;;;;10.70;81.40;;;;;;5437574;26;19993;-61
2024/04/13 04:44:23;;;;;;;;;;;10.70;81.40;;;;;;5443012;26;19965;-64
2024/04/13 04:46:51;;;;;;;;;;;10.60;81.40;;;;;;5453415;26;19936;-62
2024/04/13 04:49:17;;;;;;;;;;;10.60;81.40;;;;;;5449756;26;19935;-62
2024/04/13 04:51:46;;;;;;;;;;;10.60;81.40;;;;;;5444486;26;20364;-59
2024/04/13 04:54:15;;;;;;;;;;;10.60;81.40;;;;;;5453248;26;19932;-61
2024/04/13 04:56:43;;;;;;;;;;;10.60;81.40;;;;;;5457450;26;19944;-61
2024/04/13 04:59:09;;;;;;;;;;;10.60;81.40;;;;;;5451430;26;19929;-61
2024/04/13 05:01:38;;;;;;;;;;;10.60;81.40;;;;;;5450433;26;19929;-60
2024/04/13 05:04:04;;;;;;;;;;;10.60;81.40;;;;;;5458794;26;20646;-61
2024/04/13 05:06:33;;;;;;;;;;;10.60;81.40;;;;;;5457459;26;19936;-60
2024/04/13 05:08:59;;;;;;;;;;;10.60;81.50;;;;;;5451677;26;19939;-62
2024/04/13 05:11:30;;;;;;;;;;;10.50;81.60;;;;;;5453528;26;19965;-62
2024/04/13 05:13:57;;;;;;;;;;;10.60;81.60;;;;;;5456693;26;19928;-61
2024/04/13 05:16:25;;;;;;;;;;;10.60;81.60;;;;;;5457440;26;19959;-61
2024/04/13 05:18:51;;;;;;;;;;;10.60;81.80;;;;;;5457458;26;19935;-61
2024/04/13 05:21:20;;;;;;;;;;;10.60;81.80;;;;;;5451099;26;19928;-62
2024/04/13 05:23:46;;;;;;;;;;;10.60;81.80;;;;;;5446883;26;19973;-61
2024/04/13 05:26:15;;;;;;;;;;;10.60;81.90;;;;;;5446204;26;20377;-62
2024/04/13 05:28:44;;;;;;;;;;;10.60;81.90;;;;;;5445345;26;21337;-61
2024/04/13 05:31:12;;;;;;;;;;;10.60;82.00;;;;;;5446615;26;19996;-66
2024/04/13 05:33:39;;;;;;;;;;;10.60;82.10;;;;;;5451598;26;19937;-65
2024/04/13 05:36:08;;;;;;;;;;;10.70;82.10;;;;;;5452566;26;20012;-66
2024/04/13 05:38:34;;;;;;;;;;;10.70;82.00;;;;;;5407643;26;19929;-66
2024/04/13 05:41:03;;;;;;;;;;;10.70;82.10;;;;;;5418893;26;20634;-65
2024/04/13 05:43:30;;;;;;;;;;;10.70;82.10;;;;;;5408086;26;20680;-66
2024/04/13 05:46:04;;;;;;;;;;;10.80;82.10;;;;;;5414670;26;19940;-65
2024/04/13 05:48:30;;;;;;;;;;;10.80;82.20;;;;;;5412379;26;19936;-66
2024/04/13 05:51:00;;;;;;;;;;;10.90;82.10;;;;;;5410544;26;19998;-65
2024/04/13 05:53:26;;;;;;;;;;;10.90;82.20;;;;;;5406447;26;20380;-66
2024/04/13 05:55:55;;;;;;;;;;;11.00;82.30;;;;;;5430257;26;19981;-65
2024/04/13 05:58:21;;;;;;;;;;;11.00;82.20;;;;;;5446982;26;19935;-65
2024/04/13 06:00:50;;;;;;;;;;;11.10;82.20;;;;;;5451525;26;19959;-65
2024/04/13 06:03:18;;;;;;;;;;;11.10;82.40;;;;;;5453547;26;19929;-65
2024/04/13 06:05:47;;;;;;;;;;;11.20;82.20;;;;;;5446531;26;20339;-65
2024/04/13 06:08:14;;;;;;;;;;;11.20;82.10;;;;;;5441210;26;19929;-66
2024/04/13 06:10:42;;;;;;;;;;;11.30;82.30;;;;;;5441285;26;20064;-66
2024/04/13 06:13:08;;;;;;;;;;;11.30;82.20;;;;;;5451152;26;19928;-65
2024/04/13 06:15:39;;;;;;;;;;;11.30;82.00;;;;;;5448085;26;19960;-66
2024/04/13 06:18:05;;;;;;;;;;;11.40;82.00;;;;;;5437594;26;19944;-65
2024/04/13 06:20:36;;;;;;;;;;;11.50;81.90;;;;;;5455710;26;19939;-66
2024/04/13 06:23:03;;;;;;;;;;;11.60;81.30;;;;;;5461100;26;19934;-65
2024/04/13 06:25:31;;;;;;;;;;;11.60;81.20;;;;;;5461132;26;19948;-66
2024/04/13 06:27:58;;;;;;;;;;;11.70;81.50;;;;;;5455984;26;19928;-65
2024/04/13 06:30:26;;;;;;;;;;;11.70;81.40;;;;;;5441079;26;19968;-65
2024/04/13 06:32:53;;;;;;;;;;;11.70;81.20;;;;;;5435837;26;20655;-65
2024/04/13 06:35:22;;;;;;;;;;;11.80;81.40;;;;;;5443079;26;19956;-65
2024/04/13 06:37:51;;;;;;;;;;;12.00;81.60;;;;;;5432227;26;20371;-64
2024/04/13 06:40:19;;;;;;;;;;;12.20;81.60;;;;;;5444545;26;19928;-65
2024/04/13 06:42:45;;;;;;;;;;;12.20;80.90;;;;;;5441688;26;19929;-71
2024/04/13 06:45:14;;;;;;;;;;;12.20;81.60;;;;;;5461009;26;19943;-70
2024/04/13 06:47:40;;;;;;;;;;;12.40;81.20;;;;;;5447473;26;20051;-70
2024/04/13 06:50:09;;;;;;;;;;;12.50;81.80;;;;;;5447293;26;19935;-70
2024/04/13 06:52:35;;;;;;;;;;;12.60;81.90;;;;;;5444901;26;19936;-71
2024/04/13 06:55:07;;;;;;;;;;;12.70;81.70;;;;;;5458053;26;19935;-70
2024/04/13 06:57:33;;;;;;;;;;;12.90;81.40;;;;;;5447764;26;20363;-72
2024/04/13 07:00:02;;;;;;;;;;;13.10;81.90;;;;;;5436283;26;19937;-71
2024/04/13 07:02:28;;;;;;;;;;;13.30;81.70;;;;;;5440159;26;19943;-71
2024/04/13 07:04:57;;;;;;;;;;;13.40;81.10;;;;;;5442020;26;20415;-71
2024/04/13 07:07:23;;;;;;;;;;;13.50;81.00;;;;;;5439871;26;20524;-70
2024/04/13 07:09:52;;;;;;;;;;;13.60;81.10;;;;;;5438593;26;19936;-71
2024/04/13 07:12:21;;;;;;;;;;;13.70;80.90;;;;;;5447738;26;19935;-71
2024/04/13 07:14:49;;;;;;;;;;;13.90;80.90;;;;;;5446310;26;19956;-71
2024/04/13 07:17:16;;;;;;;;;;;14.00;80.50;;;;;;5440866;26;19929;-71
2024/04/13 07:19:44;;;;;;;;;;;14.10;80.20;;;;;;5455257;26;19932;-71
2024/04/13 07:22:10;;;;;;;;;;;14.20;80.40;;;;;;5449074;26;19946;-71
2024/04/13 07:24:39;;;;;;;;;;;14.40;80.10;;;;;;5449639;26;20019;-71
2024/04/13 07:27:06;;;;;;;;;;;14.60;79.50;;;;;;5451892;26;20367;-71
2024/04/13 07:29:37;;;;;;;;;;;14.70;79.10;;;;;;5462212;26;19943;-70
2024/04/13 07:32:03;;;;;;;;;;;14.90;78.80;;;;;;5461543;26;19928;-71
2024/04/13 07:34:32;;;;;;;;;;;15.10;78.40;;;;;;5463913;26;19944;-71
2024/04/13 07:36:58;;;;;;;;;;;15.20;78.00;;;;;;5462588;26;19940;-70
2024/04/13 07:39:27;;;;;;;;;;;15.30;77.80;;;;;;5453211;26;19933;-71
2024/04/13 07:41:53;;;;;;;;;;;15.40;77.40;;;;;;5448062;26;19961;-72
2024/04/13 07:44:21;;;;;;;;;;;15.60;77.10;;;;;;5454745;26;19935;-70
2024/04/13 07:46:50;;;;;;;;;;;15.70;76.80;;;;;;5446885;26;19929;-70
2024/04/13 07:49:20;;;;;;;;;;;15.90;76.20;;;;;;5454550;26;19936;-71
2024/04/13 07:51:46;;;;;;;;;;;16.00;75.80;;;;;;5453661;26;19936;-66
2024/04/13 07:54:15;;;;;;;;;;;16.20;75.70;;;;;;5445003;26;20009;-66
2024/04/13 07:56:41;;;;;;;;;;;16.40;75.40;;;;;;5445763;26;19937;-65
2024/04/13 07:59:10;;;;;;;;;;;16.50;75.10;;;;;;5448067;26;19935;-66
2024/04/13 08:01:36;;;;;;;;;;;16.60;74.90;;;;;;5448213;26;19995;-66
2024/04/13 08:04:07;;;;;;;;;;;16.70;74.40;;;;;;5447354;26;19996;-65
2024/04/13 08:06:33;;;;;;;;;;;16.90;74.10;;;;;;5448574;26;19930;-65
2024/04/13 08:09:02;;;;;;;;;;;17.00;73.90;;;;;;5451872;26;19928;-66
2024/04/13 08:11:28;;;;;;;;;;;17.20;74.00;;;;;;5448442;26;19994;-65
2024/04/13 08:13:58;;;;;;;;;;;17.30;73.80;;;;;;5448329;26;19992;-65
2024/04/13 08:16:24;;;;;;;;;;;17.40;73.60;;;;;;5445053;26;19964;-64
2024/04/13 08:18:53;;;;;;;;;;;17.50;73.50;;;;;;5445814;26;19940;-65
2024/04/13 08:21:22;;;;;;;;;;;17.60;73.50;;;;;;5444721;26;19935;-65
2024/04/13 08:23:50;;;;;;;;;;;17.80;73.50;;;;;;5444056;26;20037;-66
2024/04/13 08:26:16;;;;;;;;;;;17.90;73.50;;;;;;5446935;26;19944;-65
2024/04/13 08:28:45;;;;;;;;;;;18.10;73.10;;;;;;5453583;26;19936;-66
2024/04/13 08:31:12;;;;;;;;;;;18.20;73.20;;;;;;5453469;26;19936;-65
2024/04/13 08:33:41;;;;;;;;;;;18.30;72.90;;;;;;5450577;26;19929;-66
2024/04/13 08:36:08;;;;;;;;;;;18.40;72.50;;;;;;5449399;26;19947;-66
2024/04/13 08:38:39;;;;;;;;;;;18.60;72.10;;;;;;5446992;26;19939;-66
2024/04/13 08:41:11;;;;;;;;;;;18.60;71.90;;;;;;5454072;26;19928;-66
2024/04/13 08:43:40;;;;;;;;;;;18.80;71.70;;;;;;5447593;26;19936;-66
2024/04/13 08:46:07;;;;;;;;;;;19.00;71.30;;;;;;5426114;26;19937;-66
2024/04/13 08:48:37;;;;;;;;;;;19.00;70.80;;;;;;5439546;26;20926;-67
2024/04/13 08:51:06;;;;;;;;;;;19.10;70.70;;;;;;5451794;26;19940;-66
2024/04/13 08:53:36;;;;;;;;;;;19.20;70.30;;;;;;5454562;26;19929;-66
2024/04/13 08:56:06;;;;;;;;;;;19.30;70.00;;;;;;5448729;26;19928;-65
2024/04/13 08:58:37;;;;;;;;;;;19.30;69.50;;;;;;5446676;26;19940;-65
2024/04/13 09:01:03;;;;;;;;;;;19.40;68.80;;;;;;5457529;26;19935;-60
2024/04/13 09:03:33;;;;;;;;;;;19.50;68.90;;;;;;5452204;26;19928;-60
2024/04/13 09:05:59;;;;;;;;;;;19.60;68.90;;;;;;5438413;26;19928;-61
2024/04/13 09:08:32;;;;;;;;;;;19.60;69.30;;;;;;5448990;26;20371;-60
2024/04/13 09:11:08;;;;;;;;;;;19.70;68.50;;;;;;5452094;26;19928;-62
2024/04/13 09:13:37;;;;;;;;;;;19.80;68.70;;;;;;5437637;26;19997;-62
2024/04/13 09:16:04;;;;;;;;;;;20.00;68.70;;;;;;5454481;26;19955;-61
2024/04/13 09:18:33;;;;;;;;;;;20.10;67.70;;;;;;5446398;26;19928;-60
2024/04/13 09:21:00;;;;;;;;;;;20.20;67.60;;;;;;5446767;26;19936;-60
2024/04/13 09:23:30;;;;;;;;;;;20.30;67.30;;;;;;5452065;26;19932;-62
2024/04/13 09:26:06;;;;;;;;;;;20.40;67.00;;;;;;5455132;26;20367;-59
2024/04/13 09:28:41;;;;;;;;;;;20.50;66.60;;;;;;5449825;26;19927;-61
2024/04/13 09:31:08;;;;;;;;;;;20.60;66.40;;;;;;5448052;26;19936;-60
2024/04/13 09:33:37;;;;;;;;;;;20.70;66.10;;;;;;5442003;26;20444;-60
2024/04/13 09:36:04;;;;;;;;;;;20.80;66.10;;;;;;5447269;26;19987;-61
2024/04/13 09:38:32;;;;;;;;;;;20.90;66.30;;;;;;5447468;26;20285;-61
2024/04/13 09:40:59;;;;;;;;;;;21.00;65.70;;;;;;5448600;26;19935;-61
2024/04/13 09:43:30;;;;;;;;;;;21.10;65.70;;;;;;5440281;26;19932;-61
2024/04/13 09:45:57;;;;;;;;;;;21.20;65.40;;;;;;5445047;26;19939;-61
2024/04/13 09:48:26;;;;;;;;;;;21.20;65.30;;;;;;5440462;26;19935;-62
2024/04/13 09:50:52;;;;;;;;;;;21.30;64.80;;;;;;5456083;26;19936;-61
2024/04/13 09:53:21;;;;;;;;;;;21.30;64.60;;;;;;5449415;26;19940;-60
2024/04/13 09:55:47;;;;;;;;;;;21.40;64.40;;;;;;5455153;26;19928;-61
2024/04/13 09:58:17;;;;;;;;;;;21.40;64.50;;;;;;5459553;26;19932;-61
2024/04/13 10:00:46;;;;;;;;;;;21.50;64.40;;;;;;5450600;26;19936;-61
2024/04/13 10:03:15;;;;;;;;;;;21.60;63.80;;;;;;5455364;26;20415;-61
2024/04/13 10:05:42;;;;;;;;;;;21.60;63.80;;;;;;5453871;26;20004;-61
2024/04/13 10:08:12;;;;;;;;;;;21.70;63.70;;;;;;5452350;26;19961;-66
2024/04/13 10:10:42;;;;;;;;;;;21.80;63.60;;;;;;5452380;26;21312;-62
2024/04/13 10:13:12;;;;;;;;;;;21.80;63.30;;;;;;5445948;26;19928;-62
2024/04/13 10:15:39;;;;;;;;;;;21.90;63.50;;;;;;5442635;26;19936;-63
2024/04/13 10:18:11;;;;;;;;;;;22.00;63.40;;;;;;5449160;26;19932;-61
2024/04/13 10:20:37;;;;;;;;;;;22.00;63.00;;;;;;5441272;26;20363;-62
2024/04/13 10:23:10;;;;;;;;;;;22.10;62.20;;;;;;5457940;26;19928;-62
2024/04/13 10:25:37;;;;;;;;;;;22.10;62.60;;;;;;5427798;26;19928;-63
2024/04/13 10:28:09;;;;;;;;;;;22.10;62.70;;;;;;5449955;26;19943;-62
2024/04/13 10:30:46;;;;;;;;;;;22.10;62.40;;;;;;5448634;26;19932;-62
2024/04/13 10:33:27;;;;;;;;;;;22.10;62.30;;;;;;5456691;26;19943;-62
2024/04/13 10:35:55;;;;;;;;;;;22.10;62.10;;;;;;5450311;26;20375;-62
2024/04/13 10:38:23;;;;;;;;;;;22.20;62.00;;;;;;5456547;26;19963;-62
2024/04/13 10:40:50;;;;;;;;;;;22.30;61.80;;;;;;5452601;26;20404;-62
2024/04/13 10:43:19;;;;;;;;;;;22.40;61.70;;;;;;5455001;26;19940;-62
2024/04/13 10:45:49;;;;;;;;;;;22.40;61.60;;;;;;5446482;26;19963;-62
2024/04/13 10:48:19;;;;;;;;;;;22.30;61.40;;;;;;5458090;26;19953;-63
2024/04/13 10:50:48;;;;;;;;;;;22.30;61.60;;;;;;5443899;26;19968;-62
2024/04/13 10:53:17;;;;;;;;;;;22.30;61.40;;;;;;5447622;26;20295;-62
2024/04/13 10:55:43;;;;;;;;;;;22.40;61.10;;;;;;5458515;26;19932;-62
2024/04/13 10:58:12;;;;;;;;;;;22.50;60.80;;;;;;5447840;26;20006;-63
2024/04/13 11:00:43;;;;;;;;;;;22.50;61.00;;;;;;5452989;26;19967;-62
2024/04/13 11:03:12;;;;;;;;;;;22.60;60.50;;;;;;5453928;26;19937;-64
2024/04/13 11:05:38;;;;;;;;;;;22.60;60.20;;;;;;5455669;26;19929;-62
2024/04/13 11:08:10;;;;;;;;;;;22.70;60.20;;;;;;5454266;26;20371;-62
2024/04/13 11:10:36;;;;;;;;;;;22.70;59.80;;;;;;5450695;26;20248;-62
2024/04/13 11:13:05;;;;;;;;;;;22.70;60.00;;;;;;5444474;26;19928;-62
2024/04/13 11:15:32;;;;;;;;;;;22.70;60.00;;;;;;5440835;26;19928;-62
2024/04/13 11:18:01;;;;;;;;;;;22.80;60.20;;;;;;5453008;26;19948;-62
2024/04/13 11:20:29;;;;;;;;;;;22.80;59.70;;;;;;5449924;26;20034;-62
2024/04/13 11:22:58;;;;;;;;;;;22.80;60.50;;;;;;5453892;26;20360;-62
2024/04/13 11:25:27;;;;;;;;;;;22.80;59.40;;;;;;5447541;26;19947;-61
2024/04/13 11:27:56;;;;;;;;;;;22.90;59.80;;;;;;5442731;26;19952;-62
2024/04/13 11:30:22;;;;;;;;;;;22.90;59.50;;;;;;5447954;26;19928;-62
2024/04/13 11:32:51;;;;;;;;;;;23.00;59.40;;;;;;5448896;26;19936;-63
2024/04/13 11:35:17;;;;;;;;;;;23.00;59.60;;;;;;5444659;26;19940;-61
2024/04/13 11:37:56;;;;;;;;;;;23.00;59.10;;;;;;5450039;26;19936;-61
2024/04/13 11:40:22;;;;;;;;;;;23.00;59.40;;;;;;5450589;26;19940;-62
2024/04/13 11:42:53;;;;;;;;;;;23.00;59.10;;;;;;5448705;26;19929;-62
2024/04/13 11:45:20;;;;;;;;;;;23.00;59.00;;;;;;5439170;26;23075;-61
2024/04/13 11:47:49;;;;;;;;;;;23.00;58.60;;;;;;5451936;26;20327;-62
2024/04/13 11:50:49;;;;;;;;;;;23.10;59.10;;;;;;5457717;26;20259;-62
2024/04/13 11:53:16;;;;;;;;;;;23.20;59.10;;;;;;5449494;26;19940;-62
2024/04/13 11:55:44;;;;;;;;;;;23.20;59.10;;;;;;5449100;26;19943;-62
2024/04/13 11:58:22;;;;;;;;;;;23.20;58.60;;;;;;5450724;26;20004;-63
2024/04/13 12:00:50;;;;;;;;;;;23.20;59.10;;;;;;5455794;26;19932;-62
2024/04/13 12:03:16;;;;;;;;;;;23.10;58.90;;;;;;5444857;26;20440;-62
2024/04/13 12:05:47;;;;;;;;;;;23.10;58.90;;;;;;5446983;26;19942;-61
2024/04/13 12:08:13;;;;;;;;;;;23.20;58.90;;;;;;5442887;26;19968;-62
2024/04/13 12:10:42;;;;;;;;;;;23.20;58.70;;;;;;5451912;26;19946;-62
2024/04/13 12:13:08;;;;;;;;;;;23.20;58.50;;;;;;5447909;26;19928;-62
2024/04/13 12:15:39;;;;;;;;;;;23.30;58.70;;;;;;5435475;26;19928;-62
2024/04/13 12:18:05;;;;;;;;;;;23.30;58.80;;;;;;5438905;26;20399;-61
2024/04/13 12:20:34;;;;;;;;;;;23.30;59.20;;;;;;5449626;26;19928;-62
2024/04/13 12:23:00;;;;;;;;;;;23.30;58.20;;;;;;5449474;26;19936;-62
2024/04/13 12:25:29;;;;;;;;;;;23.40;57.90;;;;;;5451417;26;20055;-62
2024/04/13 12:27:55;;;;;;;;;;;23.40;58.00;;;;;;5449319;26;19928;-62
2024/04/13 12:30:25;;;;;;;;;;;23.30;57.90;;;;;;5449414;26;19932;-61
2024/04/13 12:32:54;;;;;;;;;;;23.30;57.90;;;;;;5451466;26;19928;-62
2024/04/13 12:35:23;;;;;;;;;;;23.40;57.40;;;;;;5458230;26;20355;-62
2024/04/13 12:37:49;;;;;;;;;;;23.40;57.60;;;;;;5447174;26;19936;-62
2024/04/13 12:40:18;;;;;;;;;;;23.50;57.10;;;;;;5451424;26;19957;-61
2024/04/13 12:42:44;;;;;;;;;;;23.40;57.40;;;;;;5446731;26;19940;-63
2024/04/13 12:45:13;;;;;;;;;;;23.40;57.70;;;;;;5440554;26;20009;-61
2024/04/13 12:47:39;;;;;;;;;;;23.50;56.80;;;;;;5441151;26;20067;-63
2024/04/13 12:50:10;;;;;;;;;;;23.50;57.60;;;;;;5451972;26;20279;-62
2024/04/13 12:52:36;;;;;;;;;;;23.40;56.60;;;;;;5455181;26;19937;-64
2024/04/13 12:55:07;;;;;;;;;;;23.40;57.50;;;;;;5452618;26;19940;-61
2024/04/13 12:57:33;;;;;;;;;;;23.40;55.20;;;;;;5457194;26;20426;-61
2024/04/13 13:00:03;;;;;;;;;;;23.40;55.60;;;;;;5459200;26;19943;-62
2024/04/13 13:02:30;;;;;;;;;;;23.40;56.10;;;;;;5446631;26;19932;-62
2024/04/13 13:04:58;;;;;;;;;;;23.50;56.00;;;;;;5445888;26;19968;-61
2024/04/13 13:07:27;;;;;;;;;;;23.40;55.80;;;;;;5451108;26;19935;-62
2024/04/13 13:09:57;;;;;;;;;;;23.30;55.90;;;;;;5449528;26;21302;-61
2024/04/13 13:12:23;;;;;;;;;;;23.30;55.50;;;;;;5451423;26;19932;-62
2024/04/13 13:14:52;;;;;;;;;;;23.30;55.50;;;;;;5460876;26;19940;-62
2024/04/13 13:17:18;;;;;;;;;;;23.30;56.00;;;;;;5448071;26;19928;-62
2024/04/13 13:19:47;;;;;;;;;;;23.30;56.50;;;;;;5452995;26;19940;-62
2024/04/13 13:22:13;;;;;;;;;;;23.30;55.80;;;;;;5454554;26;19969;-62
2024/04/13 13:42:42;;;;;;;;;;;23.10;55.30;;;;;;5445348;26;19944;-61
2024/04/13 13:45:08;;;;;;;;;;;23.10;54.30;;;;;;5449489;26;19927;-61
2024/04/13 13:47:37;;;;;;;;;;;23.10;54.30;;;;;;5451901;26;19928;-61
2024/04/13 13:50:03;;;;;;;;;;;23.10;54.30;;;;;;5458407;26;19928;-62
2024/04/13 13:52:33;;;;;;;;;;;23.10;53.60;;;;;;5455683;26;19941;-62
2024/04/13 13:54:59;;;;;;;;;;;23.10;54.20;;;;;;5455176;26;19937;-62
2024/04/13 13:57:27;;;;;;;;;;;23.00;54.80;;;;;;5456467;26;19928;-62
2024/04/13 13:59:56;;;;;;;;;;;23.00;54.80;;;;;;5450870;26;19940;-62
2024/04/13 14:24:02;;;;;;;;;;;22.90;54.50;;;;;;5464495;26;20286;-62
2024/04/13 14:26:28;;;;;;;;;;;22.80;54.70;;;;;;5451073;26;19928;-62
2024/04/13 14:28:57;;;;;;;;;;;22.80;54.20;;;;;;5457892;26;20001;-62
2024/04/13 14:31:23;;;;;;;;;;;22.70;54.10;;;;;;5454011;26;19929;-61
2024/04/13 14:33:52;;;;;;;;;;;22.70;54.50;;;;;;5439786;26;19928;-61
2024/04/13 14:36:18;;;;;;;;;;;22.70;54.50;;;;;;5448800;26;20431;-61
2024/04/13 14:38:46;;;;;;;;;;;22.70;55.60;;;;;;5456153;26;20267;-61
2024/04/13 14:41:15;;;;;;;;;;;22.70;54.40;;;;;;5446352;26;19949;-63
2024/04/13 14:43:44;;;;;;;;;;;22.70;54.40;;;;;;5453497;26;20035;-62
2024/04/13 14:46:10;;;;;;;;;;;22.60;55.30;;;;;;5454652;26;19927;-61
2024/04/13 14:48:39;;;;;;;;;;;22.60;55.10;;;;;;5453234;26;19936;-62
2024/04/13 14:51:05;;;;;;;;;;;22.60;54.90;;;;;;5456343;26;19936;-66
2024/04/13 14:53:34;;;;;;;;;;;22.60;55.20;;;;;;5458616;26;20365;-69
2024/04/13 14:56:01;;;;;;;;;;;22.60;55.60;;;;;;5451869;26;19927;-68
2024/04/13 14:58:32;;;;;;;;;;;22.60;56.20;;;;;;5445518;26;19975;-68
2024/04/13 15:01:01;;;;;;;;;;;22.50;55.50;;;;;;5453324;26;19936;-68
2024/04/13 15:03:30;;;;;;;;;;;22.50;55.60;;;;;;5445106;26;20374;-68
2024/04/13 15:05:56;;;;;;;;;;;22.40;56.60;;;;;;5460560;26;19929;-68
2024/04/13 15:08:25;;;;;;;;;;;22.40;56.00;;;;;;5458966;26;19929;-68
2024/04/13 15:10:51;;;;;;;;;;;22.40;56.60;;;;;;5451401;26;19937;-68
2024/04/13 15:13:20;;;;;;;;;;;22.40;56.10;;;;;;5448276;26;19995;-68